createdAt,value
2023-03-22T00:00:07.258Z,13.64
2023-03-22T00:02:40.071Z,13.62
2023-03-22T00:05:12.812Z,13.62
2023-03-22T00:07:45.708Z,13.59
2023-03-22T00:10:18.558Z,13.57
2023-03-22T00:12:53.282Z,13.55
2023-03-22T00:15:26.440Z,13.53
2023-03-22T00:17:59.528Z,13.50
2023-03-22T00:20:33.861Z,13.48
2023-03-22T00:23:06.857Z,13.47
2023-03-22T00:25:39.660Z,13.43
2023-03-22T00:28:14.578Z,13.42
2023-03-22T00:30:52.068Z,13.40
2023-03-22T00:33:25.267Z,13.39
2023-03-22T00:35:59.473Z,13.38
2023-03-22T00:38:42.336Z,13.35
2023-03-22T00:41:17.100Z,13.32
2023-03-22T00:43:53.483Z,13.30
2023-03-22T00:46:26.393Z,13.26
2023-03-22T00:48:59.373Z,13.24
2023-03-22T00:51:32.082Z,13.20
2023-03-22T00:54:05.040Z,13.16
2023-03-22T00:56:38.433Z,13.12
2023-03-22T00:59:13.561Z,13.06
2023-03-22T01:01:46.250Z,12.99
2023-03-22T01:04:26.149Z,12.95
2023-03-22T01:07:02.172Z,12.84
2023-03-22T01:09:34.981Z,12.76
2023-03-22T01:12:07.887Z,12.68
2023-03-22T01:14:42.292Z,12.58
2023-03-22T01:17:15.043Z,12.48
2023-03-22T01:19:47.861Z,12.38
2023-03-22T01:22:20.738Z,12.32
2023-03-22T01:24:53.992Z,12.20
2023-03-22T01:27:26.658Z,12.14
2023-03-22T01:30:00.835Z,12.06
2023-03-22T01:32:33.614Z,11.99
2023-03-22T01:35:06.965Z,11.93
2023-03-22T01:37:39.706Z,11.86
2023-03-22T01:40:13.468Z,11.81
2023-03-22T01:42:46.238Z,11.73
2023-03-22T01:45:34.909Z,11.68
2023-03-22T01:48:11.046Z,11.61
2023-03-22T01:50:45.931Z,11.56
2023-03-22T01:53:23.737Z,11.50
2023-03-22T01:55:57.351Z,11.43
2023-03-22T01:58:30.185Z,11.36
2023-03-22T02:01:05.505Z,11.30
2023-03-22T02:03:42.281Z,11.23
2023-03-22T02:06:15.085Z,11.16
2023-03-22T02:08:47.974Z,11.10
2023-03-22T02:11:24.529Z,11.03
2023-03-22T02:14:06.324Z,10.98
2023-03-22T02:16:47.042Z,10.91
2023-03-22T02:19:42.344Z,10.83
2023-03-22T02:22:38.930Z,10.76
2023-03-22T02:25:25.417Z,10.72
2023-03-22T02:28:08.951Z,10.67
2023-03-22T02:30:54.386Z,10.60
2023-03-22T02:33:57.702Z,10.56
2023-03-22T02:36:37.969Z,10.50
2023-03-22T02:39:18.720Z,10.45
2023-03-22T02:42:01.836Z,10.42
2023-03-22T02:44:41.825Z,10.38
2023-03-22T02:47:20.589Z,10.36
2023-03-22T02:49:57.298Z,10.34
2023-03-22T02:52:32.342Z,10.30
2023-03-22T02:55:11.466Z,10.28
2023-03-22T02:57:47.000Z,10.26
2023-03-22T03:00:21.047Z,10.25
2023-03-22T03:02:55.715Z,10.23
2023-03-22T03:05:29.703Z,10.19
2023-03-22T03:08:03.796Z,10.18
2023-03-22T03:10:38.739Z,10.13
2023-03-22T03:13:13.635Z,10.11
2023-03-22T03:15:48.812Z,10.09
2023-03-22T03:18:27.877Z,10.07
2023-03-22T03:21:04.153Z,10.04
2023-03-22T03:23:41.217Z,10.01
2023-03-22T03:26:22.601Z,9.99
2023-03-22T03:28:59.099Z,9.94
2023-03-22T03:31:36.147Z,9.93
2023-03-22T03:34:12.437Z,9.87
2023-03-22T03:36:47.553Z,9.85
2023-03-22T03:39:22.033Z,9.80
2023-03-22T03:41:56.851Z,9.78
2023-03-22T03:44:30.762Z,9.74
2023-03-22T03:47:04.016Z,9.70
2023-03-22T03:49:37.050Z,9.67
2023-03-22T03:52:10.013Z,9.65
2023-03-22T03:54:42.799Z,9.61
2023-03-22T03:57:17.600Z,9.60
2023-03-22T03:59:50.296Z,9.56
2023-03-22T04:02:23.329Z,9.54
2023-03-22T04:04:56.184Z,9.54
2023-03-22T04:07:28.966Z,9.51
2023-03-22T04:10:01.664Z,9.49
2023-03-22T04:12:35.734Z,9.48
2023-03-22T04:15:08.998Z,9.46
2023-03-22T04:17:41.776Z,9.42
2023-03-22T04:20:14.746Z,9.40
2023-03-22T04:22:48.657Z,9.39
2023-03-22T04:25:22.982Z,9.37
2023-03-22T04:27:57.247Z,9.36
2023-03-22T04:30:30.875Z,9.33
2023-03-22T04:33:07.024Z,9.31
2023-03-22T04:35:39.798Z,9.30
2023-03-22T04:38:12.529Z,9.30
2023-03-22T04:40:46.820Z,9.29
2023-03-22T04:43:21.062Z,9.26
2023-03-22T04:45:54.883Z,9.25
2023-03-22T04:48:28.340Z,9.24
2023-03-22T04:51:04.097Z,9.24
2023-03-22T04:53:38.981Z,9.23
2023-03-22T04:56:12.930Z,9.23
2023-03-22T04:58:48.140Z,9.22
2023-03-22T05:01:21.039Z,9.20
2023-03-22T05:03:53.862Z,9.19
2023-03-22T05:06:27.504Z,9.19
2023-03-22T05:09:00.982Z,9.18
2023-03-22T05:11:33.823Z,9.17
2023-03-22T05:14:08.085Z,9.16
2023-03-22T05:16:41.433Z,9.14
2023-03-22T05:19:15.064Z,9.13
2023-03-22T05:21:47.678Z,9.11
2023-03-22T05:24:20.625Z,9.10
2023-03-22T05:26:54.022Z,9.08
2023-03-22T05:29:28.593Z,9.07
2023-03-22T05:32:01.466Z,9.04
2023-03-22T05:34:36.566Z,9.03
2023-03-22T05:37:09.254Z,9.02
2023-03-22T05:39:42.116Z,9.00
2023-03-22T05:42:14.912Z,8.99
2023-03-22T05:44:49.001Z,8.99
2023-03-22T05:47:22.238Z,8.98
2023-03-22T05:49:55.000Z,8.96
2023-03-22T05:52:27.784Z,8.97
2023-03-22T05:55:01.001Z,8.96
2023-03-22T05:57:33.847Z,8.95
2023-03-22T06:00:13.551Z,8.95
2023-03-22T06:02:47.329Z,8.92
2023-03-22T06:05:21.189Z,8.93
2023-03-22T06:07:53.851Z,8.95
2023-03-22T06:10:28.920Z,8.96
2023-03-22T06:13:01.610Z,8.96
2023-03-22T06:15:35.719Z,9.01
2023-03-22T06:18:08.520Z,9.03
2023-03-22T06:20:41.817Z,9.09
2023-03-22T06:23:14.696Z,9.16
2023-03-22T06:25:47.453Z,9.25
2023-03-22T06:28:20.351Z,9.36
2023-03-22T06:30:54.518Z,9.46
2023-03-22T06:33:27.239Z,9.58
2023-03-22T06:36:02.065Z,9.69
2023-03-22T06:38:34.888Z,9.82
2023-03-22T06:41:07.751Z,9.96
2023-03-22T06:43:40.524Z,10.10
2023-03-22T06:46:14.838Z,10.25
2023-03-22T06:48:47.576Z,10.40
2023-03-22T06:51:20.534Z,10.51
2023-03-22T06:53:53.259Z,10.67
2023-03-22T06:56:26.361Z,10.81
2023-03-22T06:58:59.103Z,10.97
2023-03-22T07:01:33.324Z,11.11
2023-03-22T07:04:06.471Z,11.25
2023-03-22T07:06:39.306Z,11.39
2023-03-22T07:09:12.338Z,11.55
2023-03-22T07:11:45.094Z,11.69
2023-03-22T07:14:18.237Z,11.83
2023-03-22T07:16:52.689Z,11.98
2023-03-22T07:19:25.893Z,12.13
2023-03-22T07:21:58.769Z,12.29
2023-03-22T07:24:31.455Z,12.41
2023-03-22T07:27:04.711Z,12.58
2023-03-22T07:29:37.655Z,12.72
2023-03-22T07:32:12.057Z,12.88
2023-03-22T07:34:44.821Z,13.02
2023-03-22T07:37:17.602Z,13.17
2023-03-22T07:39:50.274Z,13.32
2023-03-22T07:42:23.416Z,13.48
2023-03-22T07:44:56.225Z,13.64
2023-03-22T07:47:40.327Z,13.81
2023-03-22T07:50:14.499Z,13.97
2023-03-22T07:52:47.251Z,14.13
2023-03-22T07:55:19.993Z,14.27
2023-03-22T07:57:53.774Z,14.42
2023-03-22T08:00:27.073Z,14.58
2023-03-22T08:03:01.492Z,14.72
2023-03-22T08:05:34.321Z,14.87
2023-03-22T08:08:07.595Z,15.04
2023-03-22T08:10:40.598Z,15.17
2023-03-22T08:13:13.443Z,15.31
2023-03-22T08:15:46.156Z,15.44
2023-03-22T08:18:20.883Z,15.58
2023-03-22T08:20:58.235Z,15.73
2023-03-22T08:23:41.541Z,15.86
2023-03-22T08:26:14.817Z,15.99
2023-03-22T08:28:47.677Z,16.13
2023-03-22T08:31:20.873Z,16.26
2023-03-22T08:33:55.057Z,16.39
2023-03-22T08:36:29.090Z,16.53
2023-03-22T08:39:02.016Z,16.65
2023-03-22T08:41:34.743Z,16.76
2023-03-22T08:44:07.777Z,16.89
2023-03-22T08:46:40.439Z,17.01
2023-03-22T08:49:15.160Z,17.13
2023-03-22T08:51:47.857Z,17.25
2023-03-22T08:54:20.841Z,17.37
2023-03-22T08:56:53.632Z,17.47
2023-03-22T08:59:29.818Z,17.55
2023-03-22T09:02:05.765Z,17.65
2023-03-22T09:04:40.714Z,17.76
2023-03-22T09:07:13.713Z,17.86
2023-03-22T09:09:46.505Z,17.95
2023-03-22T09:12:19.252Z,18.02
2023-03-22T09:14:52.041Z,18.11
2023-03-22T09:17:24.742Z,18.19
2023-03-22T09:20:11.508Z,18.26
2023-03-22T09:22:45.377Z,18.37
2023-03-22T09:25:18.189Z,18.45
2023-03-22T09:27:51.312Z,18.51
2023-03-22T09:30:24.189Z,18.56
2023-03-22T09:32:57.009Z,18.62
2023-03-22T09:35:31.192Z,18.69
2023-03-22T09:38:06.103Z,18.74
2023-03-22T09:40:40.393Z,18.79
2023-03-22T09:43:13.873Z,18.86
2023-03-22T09:45:49.264Z,18.90
2023-03-22T09:48:23.374Z,18.92
2023-03-22T09:50:57.700Z,18.98
2023-03-22T09:53:30.964Z,19.01
2023-03-22T09:56:08.712Z,19.05
2023-03-22T09:58:44.678Z,19.10
2023-03-22T10:01:22.629Z,19.14
2023-03-22T10:04:06.178Z,19.18
2023-03-22T10:06:42.127Z,19.22
2023-03-22T10:09:17.764Z,19.26
2023-03-22T10:11:55.075Z,19.31
2023-03-22T10:14:31.560Z,19.34
2023-03-22T10:17:07.705Z,19.39
2023-03-22T10:19:45.115Z,19.41
2023-03-22T10:22:22.621Z,19.46
2023-03-22T10:24:55.806Z,19.50
2023-03-22T10:27:30.657Z,19.54
2023-03-22T10:30:05.111Z,19.59
2023-03-22T10:32:56.809Z,19.64
2023-03-22T10:35:31.158Z,19.69
2023-03-22T10:38:07.780Z,19.74
2023-03-22T10:40:41.539Z,19.78
2023-03-22T10:43:18.520Z,19.85
2023-03-22T10:45:52.346Z,19.90
2023-03-22T10:48:27.873Z,19.96
2023-03-22T10:51:01.201Z,20.02
2023-03-22T10:53:38.799Z,20.07
2023-03-22T10:56:13.823Z,20.12
2023-03-22T10:58:46.840Z,20.14
2023-03-22T11:01:27.341Z,20.18
2023-03-22T11:04:01.239Z,20.21
2023-03-22T11:06:35.338Z,20.22
2023-03-22T11:09:14.320Z,20.23
2023-03-22T11:11:49.494Z,20.22
2023-03-22T11:14:25.334Z,20.21
2023-03-22T11:16:59.556Z,20.17
2023-03-22T11:19:33.824Z,20.15
2023-03-22T11:22:08.313Z,20.15
2023-03-22T11:24:43.043Z,20.13
2023-03-22T11:27:20.392Z,20.13
2023-03-22T11:29:54.161Z,20.13
2023-03-22T11:32:28.897Z,20.14
2023-03-22T11:35:03.407Z,20.14
2023-03-22T11:37:41.767Z,20.14
2023-03-22T11:40:18.658Z,20.14
2023-03-22T11:42:54.155Z,20.17
2023-03-22T11:45:28.309Z,20.18
2023-03-22T11:48:03.248Z,20.19
2023-03-22T11:50:39.137Z,20.20
2023-03-22T11:53:13.471Z,20.22
2023-03-22T11:55:49.918Z,20.26
2023-03-22T11:58:28.157Z,20.29
2023-03-22T12:01:02.069Z,20.32
2023-03-22T12:03:39.308Z,20.34
2023-03-22T12:06:18.702Z,20.37
2023-03-22T12:08:54.066Z,20.41
2023-03-22T12:11:29.476Z,20.45
2023-03-22T12:14:04.142Z,20.50
2023-03-22T12:16:41.068Z,20.52
2023-03-22T12:19:18.224Z,20.58
2023-03-22T12:21:51.519Z,20.62
2023-03-22T12:24:27.069Z,20.67
2023-03-22T12:27:05.295Z,20.72
2023-03-22T12:29:39.712Z,20.78
2023-03-22T12:32:15.788Z,20.81
2023-03-22T12:34:51.092Z,20.87
2023-03-22T12:37:28.963Z,20.91
2023-03-22T12:40:06.140Z,20.94
2023-03-22T12:42:50.782Z,20.96
2023-03-22T12:45:27.368Z,21.01
2023-03-22T12:48:05.134Z,21.04
2023-03-22T12:50:40.548Z,21.05
2023-03-22T12:53:16.297Z,21.08
2023-03-22T12:55:49.632Z,21.11
2023-03-22T12:58:25.244Z,21.12
2023-03-22T13:01:00.146Z,21.13
2023-03-22T13:03:39.020Z,21.15
2023-03-22T13:06:27.319Z,21.18
2023-03-22T13:09:05.111Z,21.20
2023-03-22T13:11:37.842Z,21.21
2023-03-22T13:14:34.621Z,21.23
2023-03-22T13:17:09.027Z,21.25
2023-03-22T13:19:52.689Z,21.24
2023-03-22T13:22:28.334Z,21.24
2023-03-22T13:25:13.843Z,21.24
2023-03-22T13:27:52.571Z,21.22
2023-03-22T13:30:27.178Z,21.22
2023-03-22T13:33:04.412Z,21.22
2023-03-22T13:35:41.114Z,21.19
2023-03-22T13:38:21.056Z,21.18
2023-03-22T13:40:57.693Z,21.18
2023-03-22T13:43:32.384Z,21.17
2023-03-22T13:46:07.341Z,21.16
2023-03-22T13:48:52.426Z,21.15
2023-03-22T13:51:31.214Z,21.13
2023-03-22T13:54:05.852Z,21.13
2023-03-22T13:56:53.172Z,21.13
2023-03-22T13:59:31.037Z,21.13
2023-03-22T14:02:05.891Z,21.13
2023-03-22T14:04:42.677Z,21.12
2023-03-22T14:07:22.466Z,21.10
2023-03-22T14:09:57.072Z,21.11
2023-03-22T14:12:32.583Z,21.11
2023-03-22T14:15:07.999Z,21.10
2023-03-22T14:17:43.467Z,21.11
2023-03-22T14:20:19.529Z,21.08
